LFLC/CFE METAR and TAF weather

Enter ICAO airport designator
Station Type Date Time Source
LFLC METAR 2019/04/18 10:30 UTC NOAA

LFLC 181030Z AUTO 16016KT CAVOK 21/01 Q1017 BECMG 18010G25KT


Station Type Date Time Source
LFLC Decoded METAR 2019/04/18 10:30 UTC NOAA

Clermont-Ferrand, France (LFLC) 45-47N 003-10E 330M
Apr 18, 2019 - 06:30 AM EDT / 2019.04.18 1030 UTC
Wind: from the SSE (160 degrees) at 18 MPH (16 KT):0
Visibility: greater than 7 mile(s):0
Temperature: 69 F (21 C)
Dew Point: 33 F (1 C)
Relative Humidity: 26%
Pressure (altimeter): 30.03 in. Hg (1017 hPa)
ob: LFLC 181030Z AUTO 16016KT CAVOK 21/01 Q1017 BECMG 18010G25KT
cycle: 10

Station Type Date Time Source
LFLC TAF 2019/04/18 09:42 UTC NOAA

TAF TAF LFLC 180800Z 1809/1909 18010G25KT CAVOK
BECMG 1900/1903 18005KT

Example: see airport list